map of SVZ home
SVZ - Airport
Location
City:  San Antonio del Táchira, Táchira, Venezuela
Name:Juan Vicente Gómez International Airport
ICAO:SVSA
IATA:SVZ

Details
Type:Airport (Aerodrome, Airfield)
Use:International (customs port of entry)
Latitude:7°50'27"N (7.840831)
Longitude:72°26'23"W (-72.439741)
Datum:WGS 1984
Elevation:1312 ft (400 m)
Variation:8.93°W (WMM2015 magnetic declination)
-0.13° annual change
Runways:1
Longest:6135 × 131 ft (1870 × 40 m), paved

Time
Time Zone:UTC-4
Local Time:

Weather
TAF:SVSA 091600Z 0918/1018 15008KT 9999 SCT020 TX33/1900Z TN24/0900Z
BECMG 0918/0922 13010KT SCT020 SCT070

Related Locations
Nearby:
Farthest:TSY: 12382 mi / 19927 km
Tasikmalaya (Tasik) [Cibeureum (Wiriadinata)], JB, ID

Find:

   beyond  
but within

Other Information
Maps:
NOTAMs:
Links:
Sources:

  
  • flag of Venezuela
  

Sectional Chart

Flight Planning
at skyvector.com

Satellite Image

Google Maps Satellite view

 

Copyright © 2004-2018 Karl L. Swartz. All rights reserved.
The Great Circle Mapper name and logo are trademarks of the Great Circle Mapper.
All other trademarks mentioned herein belong to their respective owners.
Please see credits for attibutions and further copyright information.

  Follow gcmap on Facebook Follow gcmap on Twitter Follow gcmap on Google+ GCmap on LinkedIn

hCard Microformat

Geo Microformat